createdAt,value
2023-02-27T00:00:00.931Z,76.63
2023-02-27T00:02:27.559Z,76.54
2023-02-27T00:04:54.717Z,76.59
2023-02-27T00:07:26.004Z,76.72
2023-02-27T00:09:53.348Z,76.75
2023-02-27T00:12:20.113Z,76.80
2023-02-27T00:14:47.024Z,76.36
2023-02-27T00:17:13.715Z,76.74
2023-02-27T00:19:40.583Z,76.53
2023-02-27T00:22:07.197Z,76.53
2023-02-27T00:24:34.081Z,76.48
2023-02-27T00:27:00.935Z,76.74
2023-02-27T00:29:27.675Z,76.67
2023-02-27T00:31:54.450Z,76.78
2023-02-27T00:34:21.138Z,76.67
2023-02-27T00:36:47.734Z,76.60
2023-02-27T00:39:15.709Z,76.51
2023-02-27T00:41:42.426Z,76.53
2023-02-27T00:44:09.047Z,76.83
2023-02-27T00:46:35.830Z,76.79
2023-02-27T00:49:02.810Z,76.69
2023-02-27T00:51:29.533Z,76.88
2023-02-27T00:53:56.568Z,76.95
2023-02-27T00:56:23.231Z,77.18
2023-02-27T00:58:49.890Z,77.16
2023-02-27T01:01:16.585Z,77.28
2023-02-27T01:03:43.598Z,77.40
2023-02-27T01:06:10.372Z,77.38
2023-02-27T01:08:37.049Z,77.22
2023-02-27T01:11:03.728Z,77.34
2023-02-27T01:13:30.502Z,77.29
2023-02-27T01:15:57.318Z,77.41
2023-02-27T01:18:24.034Z,77.64
2023-02-27T01:20:55.017Z,77.62
2023-02-27T01:23:22.839Z,77.61
2023-02-27T01:25:49.955Z,77.37
2023-02-27T01:28:17.121Z,77.31
2023-02-27T01:30:44.003Z,77.38
2023-02-27T01:33:10.678Z,77.21
2023-02-27T01:35:37.813Z,77.45
2023-02-27T01:38:04.484Z,77.55
2023-02-27T01:40:36.834Z,77.55
2023-02-27T01:43:05.026Z,77.61
2023-02-27T01:45:35.119Z,77.78
2023-02-27T01:48:20.715Z,77.68
2023-02-27T01:50:57.664Z,77.67
2023-02-27T01:53:28.843Z,77.71
2023-02-27T01:55:59.233Z,77.53
2023-02-27T01:58:27.102Z,77.50
2023-02-27T02:00:54.725Z,77.45
2023-02-27T02:03:40.115Z,77.88
2023-02-27T02:06:07.397Z,77.90
2023-02-27T02:08:39.037Z,77.89
2023-02-27T02:11:07.663Z,78.00
2023-02-27T02:13:34.885Z,77.96
2023-02-27T02:16:15.501Z,78.10
2023-02-27T02:19:21.256Z,78.04
2023-02-27T02:21:51.240Z,77.90
2023-02-27T02:24:39.219Z,78.09
2023-02-27T02:27:34.661Z,78.02
2023-02-27T02:30:07.433Z,78.07
2023-02-27T02:33:10.477Z,77.78
2023-02-27T02:36:11.171Z,77.98
2023-02-27T02:39:02.517Z,77.86
2023-02-27T02:41:52.508Z,77.87
2023-02-27T02:44:28.952Z,78.02
2023-02-27T02:47:25.825Z,78.00
2023-02-27T02:50:02.928Z,77.84
2023-02-27T02:52:45.974Z,77.97
2023-02-27T02:55:25.623Z,78.19
2023-02-27T02:58:01.941Z,77.84
2023-02-27T03:00:33.716Z,77.97
2023-02-27T03:03:29.202Z,77.81
2023-02-27T03:06:00.732Z,77.80
2023-02-27T03:08:32.725Z,77.65
2023-02-27T03:11:04.270Z,77.39
2023-02-27T03:13:40.272Z,77.52
2023-02-27T03:16:41.300Z,77.52
2023-02-27T03:19:45.805Z,77.63
2023-02-27T03:22:20.631Z,77.56
2023-02-27T03:24:58.164Z,77.80
2023-02-27T03:27:30.291Z,77.91
2023-02-27T03:30:47.397Z,78.11
2023-02-27T03:33:54.528Z,77.95
2023-02-27T03:36:44.747Z,77.75
2023-02-27T03:39:22.305Z,77.82
2023-02-27T03:41:54.884Z,77.81
2023-02-27T03:44:56.632Z,77.88
2023-02-27T03:47:23.525Z,77.99
2023-02-27T03:49:53.201Z,77.98
2023-02-27T03:52:22.109Z,78.13
2023-02-27T03:55:14.799Z,78.00
2023-02-27T03:57:41.916Z,78.09
2023-02-27T04:00:12.419Z,78.26
2023-02-27T04:02:41.209Z,78.34
2023-02-27T04:05:08.635Z,78.41
2023-02-27T04:07:54.011Z,78.45
2023-02-27T04:10:42.917Z,78.29
2023-02-27T04:13:39.978Z,78.38
2023-02-27T04:16:33.429Z,78.56
2023-02-27T04:19:09.444Z,78.51
2023-02-27T04:22:03.256Z,78.44
2023-02-27T04:25:02.781Z,78.14
2023-02-27T04:27:39.363Z,78.30
2023-02-27T04:30:38.547Z,78.22
2023-02-27T04:33:12.997Z,78.31
2023-02-27T04:35:56.764Z,77.99
2023-02-27T04:38:30.670Z,78.13
2023-02-27T04:41:08.607Z,78.07
2023-02-27T04:43:38.138Z,77.90
2023-02-27T04:46:08.848Z,78.14
2023-02-27T04:48:44.841Z,78.19
2023-02-27T04:51:16.659Z,78.09
2023-02-27T04:54:03.448Z,78.13
2023-02-27T04:56:47.783Z,77.96
2023-02-27T04:59:26.249Z,77.93
2023-02-27T05:02:25.101Z,77.83
2023-02-27T05:04:56.836Z,77.91
2023-02-27T05:07:30.289Z,78.02
2023-02-27T05:10:12.334Z,77.86
2023-02-27T05:12:41.102Z,77.73
2023-02-27T05:15:22.138Z,77.77
2023-02-27T05:18:03.039Z,77.81
2023-02-27T05:20:48.134Z,77.66
2023-02-27T05:23:21.022Z,77.89
2023-02-27T05:25:58.103Z,77.71
2023-02-27T05:28:46.551Z,77.78
2023-02-27T05:31:22.004Z,77.88
2023-02-27T05:34:22.603Z,77.93
2023-02-27T05:37:02.495Z,77.88
2023-02-27T05:39:32.241Z,77.60
2023-02-27T05:42:07.633Z,77.90
2023-02-27T05:44:43.718Z,77.72
2023-02-27T05:47:18.758Z,77.62
2023-02-27T05:49:55.048Z,77.67
2023-02-27T05:52:25.165Z,77.73
2023-02-27T05:55:04.363Z,77.73
2023-02-27T05:57:40.819Z,77.68
2023-02-27T06:00:11.025Z,77.68
2023-02-27T06:02:38.769Z,77.61
2023-02-27T06:05:06.164Z,77.79
2023-02-27T06:07:34.083Z,77.84
2023-02-27T06:10:01.296Z,77.88
2023-02-27T06:12:28.106Z,77.83
2023-02-27T06:14:55.080Z,78.07
2023-02-27T06:17:21.824Z,77.99
2023-02-27T06:19:48.540Z,77.91
2023-02-27T06:22:15.229Z,77.99
2023-02-27T06:24:41.985Z,78.04
2023-02-27T06:27:08.606Z,78.00
2023-02-27T06:29:35.604Z,78.18
2023-02-27T06:32:02.296Z,78.22
2023-02-27T06:34:29.197Z,78.14
2023-02-27T06:36:55.909Z,78.30
2023-02-27T06:39:22.893Z,78.08
2023-02-27T06:41:49.642Z,78.12
2023-02-27T06:44:18.524Z,78.03
2023-02-27T06:46:46.332Z,77.93
2023-02-27T06:49:13.635Z,77.94
2023-02-27T06:51:40.262Z,78.04
2023-02-27T06:54:08.141Z,78.09
2023-02-27T06:56:34.953Z,78.08
2023-02-27T06:59:01.892Z,78.04
2023-02-27T07:01:28.790Z,78.01
2023-02-27T07:03:55.568Z,78.08
2023-02-27T07:06:22.443Z,78.09
2023-02-27T07:09:09.187Z,77.97
2023-02-27T07:11:35.978Z,78.10
2023-02-27T07:14:02.885Z,77.81
2023-02-27T07:16:29.711Z,77.80
2023-02-27T07:18:56.523Z,77.62
2023-02-27T07:21:23.142Z,77.63
2023-02-27T07:23:49.934Z,78.04
2023-02-27T07:26:16.770Z,78.03
2023-02-27T07:28:43.409Z,77.80
2023-02-27T07:31:10.206Z,78.03
2023-02-27T07:33:37.018Z,77.80
2023-02-27T07:36:03.926Z,77.99
2023-02-27T07:38:32.444Z,78.12
2023-02-27T07:40:59.207Z,78.18
2023-02-27T07:43:26.377Z,78.52
2023-02-27T07:45:53.256Z,78.38
2023-02-27T07:48:20.677Z,78.31
2023-02-27T07:50:47.261Z,78.41
2023-02-27T07:53:14.012Z,78.26
2023-02-27T07:55:40.700Z,78.08
2023-02-27T07:58:07.510Z,78.23
2023-02-27T08:00:34.438Z,78.09
2023-02-27T08:03:01.242Z,78.05
2023-02-27T08:05:27.931Z,78.38
2023-02-27T08:07:54.770Z,77.96
2023-02-27T08:10:21.585Z,77.90
2023-02-27T08:12:48.183Z,78.20
2023-02-27T08:15:15.074Z,78.26
2023-02-27T08:17:41.721Z,78.41
2023-02-27T08:20:11.410Z,78.24
2023-02-27T08:22:38.370Z,77.89
2023-02-27T08:25:07.913Z,78.11
2023-02-27T08:27:34.906Z,78.25
2023-02-27T08:30:01.801Z,78.40
2023-02-27T08:32:28.886Z,78.22
2023-02-27T08:34:58.607Z,77.75
2023-02-27T08:37:25.386Z,77.88
2023-02-27T08:39:52.052Z,77.83
2023-02-27T08:42:18.749Z,77.72
2023-02-27T08:44:45.424Z,77.71
2023-02-27T08:47:12.159Z,77.65
2023-02-27T08:49:39.006Z,77.76
2023-02-27T08:52:05.874Z,77.72
2023-02-27T08:54:32.536Z,77.69
2023-02-27T08:56:59.117Z,77.55
2023-02-27T08:59:25.834Z,77.57
2023-02-27T09:01:52.650Z,77.77
2023-02-27T09:04:21.000Z,77.22
2023-02-27T09:06:48.392Z,77.49
2023-02-27T09:09:15.096Z,77.53
2023-02-27T09:11:41.978Z,77.42
2023-02-27T09:14:08.890Z,77.02
2023-02-27T09:16:35.698Z,76.98
2023-02-27T09:19:02.342Z,76.96
2023-02-27T09:21:30.024Z,76.68
2023-02-27T09:24:02.614Z,76.82
2023-02-27T09:26:44.954Z,76.88
2023-02-27T09:29:12.708Z,76.78
2023-02-27T09:31:39.526Z,76.58
2023-02-27T09:34:06.380Z,76.67
2023-02-27T09:36:33.621Z,76.90
2023-02-27T09:39:00.894Z,76.98
2023-02-27T09:41:56.036Z,76.80
2023-02-27T09:44:45.619Z,76.70
2023-02-27T09:47:38.112Z,76.64
2023-02-27T09:50:26.386Z,76.86
2023-02-27T09:52:53.117Z,76.81
2023-02-27T09:55:22.119Z,77.05
2023-02-27T09:58:06.787Z,77.13
2023-02-27T10:00:53.775Z,77.13
2023-02-27T10:03:48.489Z,77.09
2023-02-27T10:06:21.782Z,76.83
2023-02-27T10:09:08.798Z,76.64
2023-02-27T10:11:59.209Z,76.47
2023-02-27T10:14:38.702Z,76.47
2023-02-27T10:17:14.140Z,76.74
2023-02-27T10:19:45.758Z,76.58
2023-02-27T10:22:17.751Z,76.50
2023-02-27T10:25:18.188Z,76.70
2023-02-27T10:27:50.564Z,76.39
2023-02-27T10:30:29.550Z,76.33
2023-02-27T10:33:10.973Z,76.54
2023-02-27T10:35:40.284Z,76.85
2023-02-27T10:38:20.682Z,77.17
2023-02-27T10:40:49.114Z,76.97
2023-02-27T10:43:20.719Z,77.10
2023-02-27T10:45:47.442Z,77.13
2023-02-27T10:48:14.992Z,76.79
2023-02-27T10:50:44.479Z,76.80
2023-02-27T10:53:40.847Z,76.97
2023-02-27T10:56:13.620Z,76.82
2023-02-27T10:58:40.433Z,76.73
2023-02-27T11:01:10.370Z,76.76
2023-02-27T11:03:41.560Z,76.79
2023-02-27T11:06:26.929Z,76.70
2023-02-27T11:09:23.108Z,76.80
2023-02-27T11:11:50.965Z,76.95
2023-02-27T11:14:33.160Z,76.78
2023-02-27T11:17:02.124Z,76.71
2023-02-27T11:19:31.891Z,76.81
2023-02-27T11:22:03.115Z,76.67
2023-02-27T11:24:30.859Z,76.88
2023-02-27T11:27:17.821Z,76.83
2023-02-27T11:29:58.262Z,76.75
2023-02-27T11:32:31.146Z,76.41
2023-02-27T11:34:57.861Z,76.47
2023-02-27T11:37:32.692Z,76.48
2023-02-27T11:40:12.932Z,76.46
2023-02-27T11:42:53.132Z,76.60
2023-02-27T11:46:04.602Z,76.46
2023-02-27T11:48:21.913Z,76.39
2023-02-27T11:50:54.661Z,76.29
2023-02-27T11:53:43.208Z,76.23
2023-02-27T11:56:16.639Z,76.28
2023-02-27T11:58:59.413Z,76.21
2023-02-27T12:01:33.271Z,75.93
2023-02-27T12:04:24.091Z,76.01
2023-02-27T12:06:53.787Z,75.99
2023-02-27T12:09:39.842Z,75.89
2023-02-27T12:12:21.385Z,76.12
2023-02-27T12:15:13.611Z,75.81
2023-02-27T12:17:57.204Z,75.62
2023-02-27T12:20:36.650Z,75.63
2023-02-27T12:23:17.031Z,75.38
2023-02-27T12:25:57.092Z,75.74
2023-02-27T12:28:31.319Z,75.40
2023-02-27T12:31:07.474Z,75.53
2023-02-27T12:34:09.512Z,75.41
2023-02-27T12:36:36.622Z,75.42
2023-02-27T12:39:05.701Z,75.25
2023-02-27T12:42:11.766Z,75.53
2023-02-27T12:45:09.211Z,75.30
2023-02-27T12:47:51.454Z,75.32
2023-02-27T12:50:20.078Z,75.18
2023-02-27T12:53:11.279Z,75.39
2023-02-27T12:55:45.245Z,75.36
2023-02-27T12:58:36.133Z,75.28
2023-02-27T13:01:13.913Z,75.08
2023-02-27T13:04:10.283Z,75.02
2023-02-27T13:06:53.240Z,74.97
2023-02-27T13:09:47.312Z,74.91
2023-02-27T13:12:37.186Z,74.75
2023-02-27T13:15:06.158Z,74.80
2023-02-27T13:17:43.658Z,74.79
2023-02-27T13:20:22.492Z,74.61
2023-02-27T13:22:56.036Z,74.92
2023-02-27T13:25:24.816Z,74.96
2023-02-27T13:27:57.678Z,74.97
2023-02-27T13:30:29.883Z,74.80
2023-02-27T13:33:15.386Z,74.87
2023-02-27T13:36:06.996Z,74.71
2023-02-27T13:38:45.970Z,74.64
2023-02-27T13:41:22.071Z,74.56
2023-02-27T13:43:53.396Z,74.54
2023-02-27T13:46:30.460Z,74.56
2023-02-27T13:49:09.209Z,74.48
2023-02-27T13:51:41.352Z,74.30
2023-02-27T13:54:07.982Z,74.41
2023-02-27T13:56:35.468Z,74.40
2023-02-27T13:59:14.196Z,74.23
2023-02-27T14:01:53.361Z,74.16
2023-02-27T14:04:21.435Z,73.79
2023-02-27T14:06:48.993Z,73.90
2023-02-27T14:09:20.842Z,74.12
2023-02-27T14:11:54.490Z,73.74
2023-02-27T14:14:50.357Z,73.90
2023-02-27T14:17:45.527Z,73.93
2023-02-27T14:20:16.921Z,73.82
2023-02-27T14:23:18.024Z,73.89
2023-02-27T14:25:54.974Z,74.02
2023-02-27T14:28:36.466Z,74.22
2023-02-27T14:31:26.092Z,73.84
2023-02-27T14:33:56.055Z,74.00
2023-02-27T14:36:27.879Z,74.06
2023-02-27T14:38:57.964Z,73.97
2023-02-27T14:41:24.561Z,74.13
2023-02-27T14:43:57.454Z,74.10
2023-02-27T14:46:36.833Z,73.92
2023-02-27T14:49:20.409Z,74.04
2023-02-27T14:51:47.872Z,74.24
2023-02-27T14:54:15.928Z,74.20
2023-02-27T14:57:00.803Z,74.59
2023-02-27T14:59:34.191Z,74.51
2023-02-27T15:02:04.653Z,74.02
2023-02-27T15:04:33.288Z,74.19
2023-02-27T15:07:00.998Z,74.24
2023-02-27T15:09:35.674Z,73.95
2023-02-27T15:12:04.688Z,74.13
2023-02-27T15:14:36.661Z,74.28
2023-02-27T15:17:05.153Z,74.31
2023-02-27T15:19:32.051Z,74.34
2023-02-27T15:22:04.022Z,74.10
2023-02-27T15:24:49.723Z,74.44
2023-02-27T15:27:28.220Z,74.20
2023-02-27T15:29:57.785Z,73.87
2023-02-27T15:32:41.261Z,73.86
2023-02-27T15:35:37.893Z,73.85
2023-02-27T15:38:05.332Z,73.61
2023-02-27T15:40:33.564Z,73.72
2023-02-27T15:43:01.540Z,73.85
2023-02-27T15:45:32.162Z,73.53
2023-02-27T15:47:59.708Z,73.76
2023-02-27T15:50:26.518Z,73.96
2023-02-27T15:53:11.209Z,74.11
2023-02-27T15:55:44.724Z,74.15
2023-02-27T15:58:31.360Z,74.13
2023-02-27T16:01:19.972Z,74.20
2023-02-27T16:03:50.304Z,74.10
2023-02-27T16:06:21.699Z,74.18
2023-02-27T16:08:53.145Z,74.11
2023-02-27T16:11:26.194Z,74.00
2023-02-27T16:13:54.528Z,74.11
2023-02-27T16:16:37.561Z,74.13
2023-02-27T16:19:27.212Z,74.21
2023-02-27T16:22:15.014Z,74.09
2023-02-27T16:24:42.880Z,74.20
2023-02-27T16:27:30.056Z,74.09
2023-02-27T16:30:02.826Z,73.77
2023-02-27T16:32:56.716Z,74.15
2023-02-27T16:35:24.065Z,74.11
2023-02-27T16:37:51.483Z,73.84
2023-02-27T16:40:19.623Z,74.21
2023-02-27T16:42:47.010Z,73.67
2023-02-27T16:45:16.918Z,74.30
2023-02-27T16:47:43.957Z,74.13
2023-02-27T16:50:24.978Z,74.10
2023-02-27T16:52:51.683Z,74.18
2023-02-27T16:55:18.817Z,74.50
2023-02-27T16:57:45.639Z,74.43
2023-02-27T17:00:14.548Z,74.51
2023-02-27T17:02:41.309Z,74.21
2023-02-27T17:05:08.445Z,74.39
2023-02-27T17:07:35.851Z,74.47
2023-02-27T17:10:03.620Z,74.51
2023-02-27T17:12:30.275Z,74.23
2023-02-27T17:14:57.392Z,74.58
2023-02-27T17:17:24.292Z,74.14
2023-02-27T17:19:50.991Z,74.05
2023-02-27T17:22:17.815Z,73.97
2023-02-27T17:24:44.520Z,73.97
2023-02-27T17:27:11.285Z,73.99
2023-02-27T17:29:39.021Z,73.99
2023-02-27T17:32:06.650Z,74.02
2023-02-27T17:34:33.494Z,74.21
2023-02-27T17:37:00.134Z,74.05
2023-02-27T17:39:27.017Z,74.19
2023-02-27T17:41:54.613Z,74.13
2023-02-27T17:44:21.645Z,73.95
2023-02-27T17:46:48.507Z,74.01
2023-02-27T17:49:15.857Z,74.16
2023-02-27T17:51:42.707Z,74.18
2023-02-27T17:54:09.656Z,74.05
2023-02-27T17:56:37.133Z,74.35
2023-02-27T17:59:05.105Z,74.25
2023-02-27T18:01:33.242Z,74.19
2023-02-27T18:04:00.182Z,74.38
2023-02-27T18:06:27.262Z,74.39
2023-02-27T18:08:54.808Z,74.24
2023-02-27T18:11:22.057Z,74.26
2023-02-27T18:13:49.380Z,74.21
2023-02-27T18:16:16.170Z,74.20
2023-02-27T18:18:43.864Z,74.24
2023-02-27T18:21:16.712Z,74.31
2023-02-27T18:23:44.471Z,74.31
2023-02-27T18:26:29.424Z,74.21
2023-02-27T18:29:02.586Z,74.16
2023-02-27T18:31:38.861Z,74.17
2023-02-27T18:34:06.262Z,73.92
2023-02-27T18:36:33.616Z,73.93
2023-02-27T18:39:00.855Z,73.88
2023-02-27T18:41:29.393Z,73.90
2023-02-27T18:43:56.401Z,74.01
2023-02-27T18:46:23.099Z,74.04
2023-02-27T18:48:50.652Z,74.02
2023-02-27T18:51:18.569Z,73.86
2023-02-27T18:53:48.235Z,73.85
2023-02-27T18:56:18.182Z,74.22
2023-02-27T18:58:45.348Z,73.93
2023-02-27T19:01:25.720Z,73.78
2023-02-27T19:03:54.017Z,74.05
2023-02-27T19:06:20.745Z,74.06
2023-02-27T19:08:47.961Z,74.09
2023-02-27T19:11:40.905Z,74.29
2023-02-27T19:14:12.036Z,74.10
2023-02-27T19:16:39.019Z,74.17
2023-02-27T19:19:07.702Z,74.20
2023-02-27T19:21:37.218Z,74.15
2023-02-27T19:24:04.266Z,74.17
2023-02-27T19:26:34.231Z,74.02
2023-02-27T19:29:01.512Z,74.12
2023-02-27T19:31:28.883Z,74.08
2023-02-27T19:33:55.940Z,74.07
2023-02-27T19:36:25.228Z,73.91
2023-02-27T19:38:52.672Z,74.05
2023-02-27T19:41:20.453Z,74.11
2023-02-27T19:43:48.379Z,73.98
2023-02-27T19:46:21.700Z,73.92
2023-02-27T19:48:48.818Z,73.98
2023-02-27T19:51:16.609Z,74.00
2023-02-27T19:53:51.397Z,74.14
2023-02-27T19:56:20.837Z,74.10
2023-02-27T19:58:48.893Z,74.22
2023-02-27T20:01:28.835Z,73.88
2023-02-27T20:03:56.382Z,74.03
2023-02-27T20:06:26.019Z,73.87
2023-02-27T20:08:53.753Z,73.75
2023-02-27T20:11:21.702Z,74.01
2023-02-27T20:13:50.133Z,73.77
2023-02-27T20:16:22.548Z,73.91
2023-02-27T20:18:50.231Z,73.84
2023-02-27T20:21:28.797Z,74.06
2023-02-27T20:23:56.853Z,73.94
2023-02-27T20:26:31.660Z,74.08
2023-02-27T20:29:01.407Z,74.11
2023-02-27T20:31:30.468Z,74.22
2023-02-27T20:33:58.168Z,74.17
2023-02-27T20:36:24.862Z,74.56
2023-02-27T20:38:51.738Z,74.49
2023-02-27T20:41:21.981Z,74.37
2023-02-27T20:43:49.511Z,74.65
2023-02-27T20:46:22.604Z,74.45
2023-02-27T20:48:49.602Z,74.19
2023-02-27T20:51:19.893Z,74.58
2023-02-27T20:53:49.244Z,74.27
2023-02-27T20:56:19.246Z,74.49
2023-02-27T20:58:45.961Z,74.31
2023-02-27T21:01:14.601Z,74.52
2023-02-27T21:03:43.037Z,74.69
2023-02-27T21:06:12.651Z,74.62
2023-02-27T21:08:42.187Z,74.94
2023-02-27T21:11:10.865Z,75.06
2023-02-27T21:13:38.071Z,74.99
2023-02-27T21:16:06.542Z,75.04
2023-02-27T21:18:34.016Z,75.27
2023-02-27T21:21:10.284Z,75.26
2023-02-27T21:23:41.503Z,75.27
2023-02-27T21:26:22.756Z,75.31
2023-02-27T21:28:58.291Z,75.34
2023-02-27T21:31:27.238Z,75.39
2023-02-27T21:33:55.695Z,75.19
2023-02-27T21:36:31.397Z,75.41
2023-02-27T21:39:00.319Z,75.18
2023-02-27T21:41:28.575Z,75.28
2023-02-27T21:43:59.977Z,75.15
2023-02-27T21:46:27.408Z,75.31
2023-02-27T21:48:54.520Z,75.29
2023-02-27T21:51:36.737Z,75.27
2023-02-27T21:54:05.779Z,75.10
2023-02-27T21:56:33.539Z,74.97
2023-02-27T21:59:01.854Z,74.77
2023-02-27T22:01:29.505Z,75.01
2023-02-27T22:03:57.115Z,75.05
2023-02-27T22:06:26.884Z,75.06
2023-02-27T22:08:58.610Z,75.15
2023-02-27T22:11:28.399Z,75.25
2023-02-27T22:13:55.212Z,75.28
2023-02-27T22:16:22.198Z,75.18
2023-02-27T22:18:49.016Z,75.21
2023-02-27T22:21:22.657Z,74.97
2023-02-27T22:23:50.171Z,75.01
2023-02-27T22:26:20.418Z,74.88
2023-02-27T22:28:47.329Z,74.80
2023-02-27T22:31:22.472Z,74.96
2023-02-27T22:33:52.279Z,74.70
2023-02-27T22:36:24.206Z,74.62
2023-02-27T22:38:51.821Z,74.84
2023-02-27T22:41:30.923Z,74.81
2023-02-27T22:43:59.355Z,74.82
2023-02-27T22:46:32.723Z,74.70
2023-02-27T22:49:04.936Z,74.69
2023-02-27T22:51:31.860Z,74.99
2023-02-27T22:54:01.867Z,74.91
2023-02-27T22:56:29.337Z,75.00
2023-02-27T22:58:56.233Z,75.07
2023-02-27T23:01:32.942Z,75.01
2023-02-27T23:04:03.133Z,75.10
2023-02-27T23:06:32.655Z,74.80
2023-02-27T23:09:00.438Z,75.18
2023-02-27T23:11:27.879Z,74.95
2023-02-27T23:13:55.127Z,75.09
2023-02-27T23:16:22.319Z,74.85
2023-02-27T23:18:51.873Z,74.80
2023-02-27T23:21:20.239Z,74.76
2023-02-27T23:23:47.947Z,75.03
2023-02-27T23:26:15.195Z,75.24
2023-02-27T23:28:42.241Z,75.21
2023-02-27T23:31:08.909Z,75.21
2023-02-27T23:33:35.901Z,75.20
2023-02-27T23:36:03.100Z,75.35
2023-02-27T23:38:30.590Z,75.51
2023-02-27T23:40:57.213Z,75.45
2023-02-27T23:43:43.225Z,75.66
2023-02-27T23:46:13.043Z,75.73
2023-02-27T23:48:40.238Z,75.79
2023-02-27T23:51:09.398Z,75.60
2023-02-27T23:53:37.529Z,75.49
2023-02-27T23:56:19.550Z,75.80
2023-02-27T23:58:47.288Z,75.53
